Time;durP1;ratioP1;P1;durP2;ratioP2;P2;SDS_P1;SDS_P2;PMS_P1;PMS_P2;Temp;Humidity;BMP_temperature;BMP_pressure;BME280_temperature;BME280_humidity;BME280_pressure;Samples;Min_cycle;Max_cycle;Signal;HPM_P1;HPM_P2
2022/03/05 00:00:54;;;;;;;11.48;8.68;;;24.90;99.90;;;;;;5091177;28;20418;-90
2022/03/05 00:03:21;;;;;;;9.98;8.32;;;25.00;99.90;;;;;;5092199;28;20372;-89
2022/03/05 00:05:48;;;;;;;9.73;8.13;;;25.10;99.90;;;;;;5092489;28;20376;-89
2022/03/05 00:08:15;;;;;;;11.45;8.30;;;25.30;99.90;;;;;;5092118;28;20429;-89
2022/03/05 00:10:42;;;;;;;10.18;8.35;;;25.30;99.90;;;;;;5092196;28;20404;-89
2022/03/05 00:13:09;;;;;;;9.35;7.63;;;25.40;99.90;;;;;;5092215;28;20852;-88
2022/03/05 00:15:36;;;;;;;14.00;9.77;;;25.60;99.90;;;;;;5090749;28;20382;-88
2022/03/05 00:18:03;;;;;;;16.00;10.05;;;25.70;99.90;;;;;;5091970;28;20411;-88
2022/03/05 00:20:30;;;;;;;15.10;10.55;;;25.50;99.90;;;;;;5091940;28;20368;-89
2022/03/05 00:22:57;;;;;;;14.80;10.02;;;25.70;99.90;;;;;;5091900;28;20747;-88
2022/03/05 00:25:25;;;;;;;13.88;9.25;;;25.90;99.90;;;;;;5092205;28;20982;-88
2022/03/05 00:27:53;;;;;;;12.65;9.70;;;25.90;99.90;;;;;;5091924;28;20381;-89
2022/03/05 00:30:21;;;;;;;14.23;10.00;;;25.70;99.90;;;;;;5090429;28;20859;-89
2022/03/05 00:32:48;;;;;;;12.43;10.07;;;25.70;99.90;;;;;;5091955;28;20392;-89
2022/03/05 00:35:15;;;;;;;13.48;10.45;;;25.70;99.90;;;;;;5090511;28;20380;-89
2022/03/05 00:37:42;;;;;;;13.35;10.13;;;25.70;99.90;;;;;;5091963;28;20455;-89
2022/03/05 00:40:10;;;;;;;14.20;10.90;;;25.70;99.90;;;;;;5092193;28;20429;-89
2022/03/05 00:42:37;;;;;;;16.15;11.43;;;25.60;99.90;;;;;;5091974;28;20369;-88
2022/03/05 00:45:08;;;;;;;16.33;11.55;;;25.60;99.90;;;;;;5091621;28;20376;-88
2022/03/05 00:47:36;;;;;;;14.02;10.50;;;25.70;99.90;;;;;;5091888;28;20375;-89
2022/03/05 00:50:04;;;;;;;17.50;11.20;;;25.80;99.90;;;;;;5091933;28;20403;-89
2022/03/05 00:52:32;;;;;;;14.13;10.30;;;25.80;99.90;;;;;;5090135;28;20471;-88
2022/03/05 00:54:58;;;;;;;14.82;11.05;;;25.70;99.90;;;;;;5091507;28;20932;-89
2022/03/05 00:57:26;;;;;;;12.68;10.02;;;25.70;99.90;;;;;;5091946;28;20387;-89
2022/03/05 00:59:53;;;;;;;12.82;9.40;;;26.10;99.90;;;;;;5090456;28;20511;-90
2022/03/05 01:02:20;;;;;;;11.25;9.10;;;26.20;99.90;;;;;;5090613;28;20387;-90
2022/03/05 01:04:46;;;;;;;12.20;9.27;;;26.40;99.90;;;;;;5091345;28;20415;-90
2022/03/05 01:07:14;;;;;;;12.45;8.75;;;26.60;99.90;;;;;;5089059;28;20380;-90
2022/03/05 01:09:41;;;;;;;11.15;8.82;;;27.00;99.90;;;;;;5089688;28;20747;-90
2022/03/05 01:12:08;;;;;;;10.60;8.30;;;27.30;99.90;;;;;;5091482;28;20369;-90
2022/03/05 01:14:35;;;;;;;11.80;8.15;;;27.60;99.90;;;;;;5091356;28;20384;-91
2022/03/05 01:17:03;;;;;;;10.10;7.53;;;27.70;99.90;;;;;;5089723;28;20476;-91
2022/03/05 01:19:29;;;;;;;11.23;7.77;;;28.00;99.90;;;;;;5089514;28;20360;-91
2022/03/05 01:21:56;;;;;;;11.73;8.02;;;28.10;99.90;;;;;;5089485;28;20372;-92
2022/03/05 01:24:23;;;;;;;8.85;7.60;;;28.00;99.90;;;;;;5090702;28;20810;-92
2022/03/05 01:26:50;;;;;;;10.93;7.55;;;28.10;99.90;;;;;;5091422;28;20404;-91
2022/03/05 01:29:17;;;;;;;10.57;7.67;;;27.90;99.90;;;;;;5088964;28;20491;-91
2022/03/05 01:31:44;;;;;;;12.10;7.45;;;27.80;99.90;;;;;;5090316;28;20380;-91
2022/03/05 01:34:11;;;;;;;10.38;7.45;;;28.00;99.90;;;;;;5093454;28;20386;-89
2022/03/05 01:36:38;;;;;;;10.43;7.75;;;28.20;99.90;;;;;;5095603;28;20373;-90
2022/03/05 01:39:05;;;;;;;10.63;7.53;;;28.20;99.90;;;;;;5092591;28;21046;-89
2022/03/05 01:41:33;;;;;;;9.02;7.30;;;28.40;99.90;;;;;;5089521;28;20447;-90
2022/03/05 01:44:00;;;;;;;10.97;7.57;;;28.40;99.90;;;;;;5089910;28;20423;-91
2022/03/05 01:46:31;;;;;;;8.80;7.32;;;28.40;99.90;;;;;;5091323;28;20400;-90
2022/03/05 01:48:58;;;;;;;12.70;7.50;;;28.30;99.90;;;;;;5089278;28;20405;-90
2022/03/05 01:51:26;;;;;;;9.20;6.90;;;28.50;99.90;;;;;;5090505;28;20733;-89
2022/03/05 01:53:53;;;;;;;8.52;6.90;;;28.90;99.90;;;;;;5090357;28;20402;-90
2022/03/05 01:56:22;;;;;;;10.57;6.82;;;29.30;99.90;;;;;;5089689;28;20470;-90
2022/03/05 01:58:49;;;;;;;10.80;7.10;;;29.30;99.90;;;;;;5090763;28;20368;-90
2022/03/05 02:01:16;;;;;;;9.00;7.20;;;29.20;99.90;;;;;;5090147;28;20380;-91
2022/03/05 02:03:43;;;;;;;9.32;7.25;;;29.30;99.90;;;;;;5089964;28;20372;-90
2022/03/05 02:06:10;;;;;;;9.80;7.10;;;29.40;99.90;;;;;;5088988;28;20383;-92
2022/03/05 02:08:37;;;;;;;9.52;7.20;;;29.70;99.90;;;;;;5089633;28;20871;-90
2022/03/05 02:11:04;;;;;;;8.10;6.35;;;29.90;99.80;;;;;;5088729;28;20388;-90
2022/03/05 02:13:32;;;;;;;7.93;6.60;;;29.10;99.90;;;;;;5090328;28;20379;-91
2022/03/05 02:15:59;;;;;;;9.63;6.90;;;28.40;99.90;;;;;;5089596;28;20383;-90
2022/03/05 02:18:26;;;;;;;10.10;6.63;;;28.20;99.90;;;;;;5089551;28;20713;-91
2022/03/05 02:20:54;;;;;;;10.05;7.05;;;28.10;99.90;;;;;;5088796;28;20473;-89
2022/03/05 02:23:22;;;;;;;9.02;6.97;;;28.00;99.90;;;;;;5090073;28;20368;-92
2022/03/05 02:25:56;;;;;;;10.57;7.10;;;28.10;99.90;;;;;;5089805;28;20388;-91
2022/03/05 02:28:25;;;;;;;11.30;7.10;;;28.20;99.90;;;;;;5092014;28;20392;-91
2022/03/05 02:30:52;;;;;;;9.88;6.65;;;28.30;99.90;;;;;;5095517;28;20395;-90
2022/03/05 02:33:19;;;;;;;8.48;6.47;;;28.40;99.90;;;;;;5096252;28;20449;-90
2022/03/05 02:35:47;;;;;;;8.87;7.00;;;28.30;99.90;;;;;;5096163;28;20388;-91
2022/03/05 02:38:16;;;;;;;9.05;7.50;;;28.30;99.90;;;;;;5095730;28;20372;-89
2022/03/05 02:40:45;;;;;;;10.23;7.50;;;28.20;99.90;;;;;;5091208;28;20372;-90
2022/03/05 02:43:12;;;;;;;11.45;7.72;;;28.20;99.90;;;;;;5089586;28;20365;-90
2022/03/05 02:45:40;;;;;;;9.02;7.15;;;28.30;99.90;;;;;;5088857;28;20441;-90
2022/03/05 02:48:10;;;;;;;10.27;6.97;;;28.00;99.90;;;;;;5090690;28;20372;-91
2022/03/05 02:50:37;;;;;;;10.23;7.23;;;28.00;99.90;;;;;;5088703;28;20389;-91
2022/03/05 02:53:05;;;;;;;10.23;7.40;;;28.20;99.90;;;;;;5090787;28;20434;-91
2022/03/05 02:55:34;;;;;;;10.77;7.78;;;28.40;99.90;;;;;;5088912;28;20388;-90
2022/03/05 02:58:02;;;;;;;10.87;7.40;;;28.70;99.90;;;;;;5090183;28;20506;-91
2022/03/05 03:00:30;;;;;;;8.60;7.00;;;29.00;99.90;;;;;;5090289;28;20419;-90
2022/03/05 03:02:57;;;;;;;8.63;7.30;;;29.00;99.90;;;;;;5091296;28;20360;-90
2022/03/05 03:05:24;;;;;;;10.75;7.13;;;28.80;99.90;;;;;;5090114;28;20836;-90
2022/03/05 03:07:51;;;;;;;8.18;6.60;;;29.10;99.90;;;;;;5089015;28;20910;-91
2022/03/05 03:10:18;;;;;;;11.48;7.70;;;29.80;99.90;;;;;;5089602;28;20403;-90
2022/03/05 03:12:45;;;;;;;9.25;7.28;;;30.00;99.90;;;;;;5088293;28;20432;-89
2022/03/05 03:15:15;;;;;;;9.32;7.00;;;29.70;99.90;;;;;;5088761;28;20385;-89
2022/03/05 03:17:47;;;;;;;8.60;6.68;;;29.70;99.90;;;;;;5089476;28;20447;-89
2022/03/05 03:20:23;;;;;;;10.80;7.07;;;29.90;99.60;;;;;;5088944;28;20371;-89
2022/03/05 03:22:50;;;;;;;9.43;7.00;;;29.80;99.60;;;;;;5089670;28;20399;-91
2022/03/05 03:25:18;;;;;;;9.18;7.03;;;29.50;99.50;;;;;;5090762;28;20408;-89
2022/03/05 03:27:45;;;;;;;10.27;6.88;;;29.50;99.90;;;;;;5080388;28;20404;-88
2022/03/05 03:30:13;;;;;;;10.05;6.88;;;29.50;99.90;;;;;;5090329;28;20892;-89
2022/03/05 03:32:41;;;;;;;9.85;6.90;;;29.50;99.70;;;;;;5091756;28;20739;-91
2022/03/05 03:35:12;;;;;;;8.52;6.90;;;29.70;99.50;;;;;;5093123;28;20814;-90
2022/03/05 03:37:40;;;;;;;9.97;7.43;;;29.90;99.90;;;;;;5091536;28;20383;-91
2022/03/05 03:40:14;;;;;;;9.52;6.95;;;30.30;99.40;;;;;;5098312;28;20886;-91
2022/03/05 03:42:44;;;;;;;9.50;6.90;;;31.10;97.20;;;;;;5055472;28;20869;-91
2022/03/05 03:45:12;;;;;;;9.63;6.70;;;31.50;95.40;;;;;;5010343;28;20751;-93
2022/03/05 03:47:41;;;;;;;10.70;7.03;;;31.40;94.00;;;;;;4996208;28;20422;-92
2022/03/05 03:50:12;;;;;;;8.20;6.88;;;31.20;94.50;;;;;;5014305;28;20884;-91
2022/03/05 03:52:40;;;;;;;11.30;7.60;;;31.20;94.20;;;;;;5017349;28;20427;-92
2022/03/05 03:55:11;;;;;;;8.20;7.30;;;31.20;94.60;;;;;;5016748;28;20403;-92
2022/03/05 03:57:40;;;;;;;9.17;6.83;;;31.30;94.50;;;;;;5014307;28;20485;-89
2022/03/05 04:00:09;;;;;;;9.20;6.60;;;31.40;94.80;;;;;;5010731;28;20483;-90
2022/03/05 04:02:37;;;;;;;9.40;6.72;;;31.80;93.10;;;;;;5010324;28;20372;-91
2022/03/05 04:05:04;;;;;;;9.00;6.70;;;32.30;91.00;;;;;;5010678;28;20875;-89
2022/03/05 04:10:16;;;;;;;9.07;6.85;;;32.30;88.10;;;;;;5010533;28;20406;-89
2022/03/05 04:12:43;;;;;;;8.50;6.30;;;31.50;90.00;;;;;;5015577;28;20375;-87
2022/03/05 04:15:11;;;;;;;7.43;6.28;;;32.60;88.80;;;;;;5018102;28;20995;-90
2022/03/05 04:17:39;;;;;;;8.25;6.65;;;33.30;86.00;;;;;;5013227;28;20482;-92
2022/03/05 04:20:10;;;;;;;7.45;5.93;;;34.10;81.20;;;;;;5033189;28;20867;-92
2022/03/05 04:22:37;;;;;;;7.32;6.30;;;34.10;79.00;;;;;;5049910;28;20414;-89
2022/03/05 04:25:05;;;;;;;8.88;5.97;;;34.30;76.00;;;;;;5050004;28;20491;-89
2022/03/05 04:27:32;;;;;;;7.73;6.27;;;34.40;75.20;;;;;;5051032;28;20454;-89
2022/03/05 04:29:59;;;;;;;9.52;6.57;;;34.60;75.00;;;;;;5049819;28;20408;-89
2022/03/05 04:32:26;;;;;;;8.98;6.60;;;34.10;75.20;;;;;;5050534;28;20403;-91
2022/03/05 04:34:53;;;;;;;8.18;6.65;;;34.00;76.80;;;;;;5049306;28;20481;-89
2022/03/05 04:37:20;;;;;;;8.73;6.85;;;33.90;75.90;;;;;;5032748;28;20376;-91
2022/03/05 04:39:47;;;;;;;7.45;6.65;;;33.70;76.80;;;;;;5032685;28;20419;-88
2022/03/05 04:42:15;;;;;;;8.52;6.82;;;33.70;75.90;;;;;;5075633;28;20405;-95
2022/03/05 04:44:42;;;;;;;9.85;7.53;;;33.30;78.80;;;;;;5090989;28;20802;-85
2022/03/05 04:47:09;;;;;;;9.45;6.90;;;32.70;78.80;;;;;;5092781;28;20418;-89
2022/03/05 04:49:36;;;;;;;8.68;7.60;;;32.00;83.90;;;;;;5092394;28;20407;-89
2022/03/05 04:52:04;;;;;;;9.25;7.28;;;31.80;85.40;;;;;;5090040;28;20716;-87
2022/03/05 04:54:33;;;;;;;9.43;7.35;;;31.10;86.30;;;;;;5090336;28;20418;-87
2022/03/05 04:57:00;;;;;;;8.93;6.77;;;30.80;90.10;;;;;;5090017;28;20388;-85
2022/03/05 04:59:27;;;;;;;53.13;25.35;;;30.80;90.90;;;;;;5090563;28;20434;-86
2022/03/05 05:01:56;;;;;;;14.43;9.85;;;30.80;91.70;;;;;;5090890;28;20372;-91
2022/03/05 05:04:23;;;;;;;10.13;8.30;;;30.90;93.30;;;;;;5091051;28;20474;-83
2022/03/05 05:06:50;;;;;;;7.78;6.60;;;31.30;91.90;;;;;;5090651;28;20373;-90
2022/03/05 05:09:18;;;;;;;18.05;9.73;;;31.10;90.20;;;;;;5090529;28;20408;-86
2022/03/05 05:11:44;;;;;;;16.52;9.77;;;30.90;90.40;;;;;;5093250;28;20399;-92
2022/03/05 05:14:11;;;;;;;11.23;7.07;;;30.70;90.70;;;;;;5091778;28;20879;-83
2022/03/05 05:16:39;;;;;;;8.20;6.40;;;30.60;90.80;;;;;;5090965;28;20461;-88
2022/03/05 05:21:51;;;;;;;27.73;11.10;;;30.70;91.10;;;;;;5091051;28;20367;-81
2022/03/05 05:24:18;;;;;;;23.90;10.85;;;30.50;93.00;;;;;;5090471;28;21002;-86
2022/03/05 05:26:45;;;;;;;12.80;7.93;;;30.50;93.10;;;;;;5090276;28;20369;-85
2022/03/05 05:29:12;;;;;;;12.23;8.48;;;30.40;93.60;;;;;;5090181;28;20411;-85
2022/03/05 05:31:39;;;;;;;11.38;8.10;;;30.10;94.10;;;;;;5090332;28;20957;-87
2022/03/05 05:34:06;;;;;;;11.63;7.88;;;29.70;95.80;;;;;;5090378;28;20381;-86
2022/03/05 05:36:38;;;;;;;14.23;9.13;;;29.60;96.50;;;;;;5091484;28;20364;-90
2022/03/05 05:39:10;;;;;;;10.73;7.65;;;29.60;97.20;;;;;;5090129;28;20883;-85
2022/03/05 05:41:38;;;;;;;11.97;7.80;;;29.50;97.80;;;;;;5090883;28;20437;-82
2022/03/05 05:44:08;;;;;;;11.43;8.10;;;29.40;98.10;;;;;;5090823;28;20462;-85
2022/03/05 05:46:35;;;;;;;11.75;8.00;;;29.30;98.60;;;;;;5088581;28;20365;-87
2022/03/05 05:49:02;;;;;;;12.55;7.60;;;29.00;99.20;;;;;;5089750;28;20449;-85
2022/03/05 05:51:32;;;;;;;9.35;7.50;;;29.00;99.70;;;;;;5089615;28;20459;-86
2022/03/05 05:53:58;;;;;;;10.02;7.95;;;28.90;99.80;;;;;;5090053;28;20400;-85
2022/03/05 05:56:25;;;;;;;10.10;7.55;;;28.90;99.90;;;;;;5089821;28;20462;-86
2022/03/05 05:58:53;;;;;;;10.15;7.22;;;29.00;99.90;;;;;;5091288;28;20379;-92
2022/03/05 06:01:21;;;;;;;11.00;7.57;;;29.00;99.90;;;;;;5091683;28;20682;-87
2022/03/05 06:03:49;;;;;;;10.20;7.65;;;28.80;99.90;;;;;;5090710;28;20421;-88
2022/03/05 06:06:16;;;;;;;10.63;7.70;;;28.70;99.90;;;;;;5090308;28;20407;-88
2022/03/05 06:08:43;;;;;;;9.77;7.50;;;28.50;99.90;;;;;;5089714;28;20724;-86
2022/03/05 06:11:11;;;;;;;10.38;7.22;;;28.40;99.90;;;;;;5089800;28;20373;-89
2022/03/05 06:13:38;;;;;;;8.87;6.97;;;28.30;99.90;;;;;;5089726;28;20371;-86
2022/03/05 06:16:06;;;;;;;8.70;6.75;;;28.30;99.90;;;;;;5090769;28;20404;-89
2022/03/05 06:18:34;;;;;;;11.53;7.37;;;28.40;99.90;;;;;;5089633;28;20918;-86
2022/03/05 06:21:01;;;;;;;12.48;8.20;;;28.30;99.90;;;;;;5090295;28;20406;-86
2022/03/05 06:23:30;;;;;;;10.38;7.32;;;28.30;99.90;;;;;;5088863;28;20447;-85
2022/03/05 06:25:57;;;;;;;10.23;7.38;;;28.20;99.90;;;;;;5089324;28;20422;-86
2022/03/05 06:28:24;;;;;;;13.18;7.40;;;28.20;99.90;;;;;;5089405;28;20398;-83
2022/03/05 06:30:51;;;;;;;12.25;7.32;;;28.20;99.90;;;;;;5089405;28;20732;-86
2022/03/05 06:33:18;;;;;;;12.45;9.68;;;28.20;99.90;;;;;;5089342;28;20452;-90
2022/03/05 06:35:45;;;;;;;10.13;7.20;;;28.30;99.90;;;;;;5089558;28;20381;-93
2022/03/05 06:38:12;;;;;;;12.00;7.23;;;28.30;99.90;;;;;;5089719;28;20396;-86
2022/03/05 06:40:39;;;;;;;9.97;6.70;;;28.30;99.90;;;;;;5087991;28;20963;-84
2022/03/05 06:43:06;;;;;;;10.20;6.82;;;28.30;99.90;;;;;;5089748;28;20368;-89
2022/03/05 06:45:33;;;;;;;10.55;6.63;;;28.20;99.90;;;;;;5088492;28;20384;-90
2022/03/05 06:48:00;;;;;;;10.43;6.68;;;28.20;99.90;;;;;;5089172;28;20376;-87
2022/03/05 06:50:27;;;;;;;10.63;6.50;;;28.10;99.90;;;;;;5089081;28;20400;-87
2022/03/05 06:52:54;;;;;;;10.60;6.70;;;28.00;99.90;;;;;;5089146;28;20388;-87
2022/03/05 06:55:23;;;;;;;10.73;6.38;;;28.00;99.90;;;;;;5087749;28;20739;-84
2022/03/05 06:57:51;;;;;;;11.05;6.28;;;27.80;99.90;;;;;;5089043;28;20429;-85
2022/03/05 07:00:20;;;;;;;11.60;6.60;;;27.70;99.90;;;;;;5089373;28;20793;-87
2022/03/05 07:02:47;;;;;;;11.40;6.68;;;27.60;99.90;;;;;;5088821;28;20463;-90
2022/03/05 07:05:15;;;;;;;12.55;6.40;;;27.30;99.90;;;;;;5087208;28;20369;-83
2022/03/05 07:07:42;;;;;;;11.20;6.57;;;27.20;99.90;;;;;;5088690;28;20474;-86
2022/03/05 07:10:10;;;;;;;10.63;6.57;;;27.10;99.90;;;;;;5088522;28;20527;-88
2022/03/05 07:12:37;;;;;;;12.77;6.97;;;27.00;99.90;;;;;;5087429;28;20365;-88
2022/03/05 07:15:05;;;;;;;10.98;6.80;;;26.90;99.90;;;;;;5088118;28;20382;-94
2022/03/05 07:17:32;;;;;;;11.50;6.63;;;26.80;99.90;;;;;;5088787;28;20378;-92
2022/03/05 07:19:59;;;;;;;11.35;6.63;;;26.60;99.90;;;;;;5089131;28;20447;-89
2022/03/05 07:22:26;;;;;;;10.68;6.97;;;26.50;99.90;;;;;;5088812;28;20852;-88
2022/03/05 07:24:53;;;;;;;11.73;6.50;;;26.50;99.90;;;;;;5087383;28;20752;-87
2022/03/05 07:27:20;;;;;;;11.23;6.07;;;26.50;99.90;;;;;;5089082;28;20443;-84
2022/03/05 07:29:47;;;;;;;11.90;6.45;;;26.40;99.90;;;;;;5088578;28;20426;-85
2022/03/05 07:32:14;;;;;;;9.55;6.13;;;26.40;99.90;;;;;;5088785;28;20372;-86
2022/03/05 07:34:41;;;;;;;10.50;5.55;;;26.30;99.90;;;;;;5088797;28;20376;-85
2022/03/05 07:37:08;;;;;;;10.73;5.88;;;26.30;99.90;;;;;;5088847;28;20786;-88
2022/03/05 07:39:35;;;;;;;9.30;5.95;;;26.20;99.90;;;;;;5088836;28;20416;-88
2022/03/05 07:42:02;;;;;;;10.35;5.75;;;26.20;99.90;;;;;;5088916;28;20383;-89
2022/03/05 07:44:31;;;;;;;10.30;5.60;;;26.20;99.90;;;;;;5088987;28;20849;-89
2022/03/05 07:46:58;;;;;;;9.35;5.00;;;26.10;99.90;;;;;;5089109;28;20693;-86
2022/03/05 07:49:25;;;;;;;11.02;5.32;;;26.10;99.90;;;;;;5088856;28;20396;-85
2022/03/05 07:51:52;;;;;;;8.05;4.70;;;26.00;99.90;;;;;;5088884;28;20369;-87
2022/03/05 07:54:19;;;;;;;12.32;4.95;;;26.00;99.90;;;;;;5089391;28;20475;-83
2022/03/05 07:56:46;;;;;;;9.30;4.88;;;26.00;99.90;;;;;;5088846;28;20372;-85
2022/03/05 07:59:14;;;;;;;9.30;4.80;;;25.90;99.90;;;;;;5088974;28;20377;-86
2022/03/05 08:02:28;;;;;;;10.60;4.78;;;25.80;99.90;;;;;;5088983;28;20378;-86
2022/03/05 08:04:55;;;;;;;9.50;4.70;;;25.80;99.90;;;;;;5009566;28;20452;-85
2022/03/05 08:07:23;;;;;;;10.40;5.45;;;25.60;99.90;;;;;;5026384;28;20456;-86
2022/03/05 08:09:50;;;;;;;9.23;4.93;;;25.60;99.90;;;;;;5026453;28;20452;-85
2022/03/05 08:12:17;;;;;;;7.82;4.82;;;25.50;99.90;;;;;;5026404;28;20977;-86
2022/03/05 08:14:44;;;;;;;8.80;4.90;;;25.50;99.90;;;;;;5025748;28;20389;-86
2022/03/05 08:17:14;;;;;;;11.93;5.97;;;25.40;99.90;;;;;;5027904;28;20382;-90
2022/03/05 08:19:42;;;;;;;7.10;4.87;;;25.40;99.90;;;;;;5013299;28;20468;-89
2022/03/05 08:22:09;;;;;;;9.03;4.80;;;25.40;99.90;;;;;;5030428;28;20369;-89
2022/03/05 08:24:36;;;;;;;8.13;4.17;;;25.30;99.90;;;;;;5029934;28;20930;-89
2022/03/05 08:27:03;;;;;;;9.07;4.75;;;25.30;99.90;;;;;;5030149;28;20405;-87
2022/03/05 08:29:30;;;;;;;8.68;4.70;;;25.20;99.90;;;;;;5030283;28;20488;-87
2022/03/05 08:31:56;;;;;;;9.52;4.68;;;25.10;99.90;;;;;;5030080;28;20872;-88
2022/03/05 08:34:23;;;;;;;9.05;4.47;;;25.10;99.90;;;;;;5013504;28;20398;-86
2022/03/05 08:36:50;;;;;;;10.27;4.30;;;25.10;99.90;;;;;;5031578;28;20746;-85
2022/03/05 08:39:17;;;;;;;8.13;3.75;;;25.10;99.90;;;;;;5030273;28;20797;-89
2022/03/05 08:41:44;;;;;;;10.57;3.88;;;25.00;99.90;;;;;;5071924;28;20747;-86
2022/03/05 08:44:11;;;;;;;9.48;4.03;;;24.90;99.90;;;;;;5091646;28;20456;-89
2022/03/05 08:46:38;;;;;;;9.95;3.95;;;24.90;99.90;;;;;;5093354;28;20391;-88
2022/03/05 08:49:05;;;;;;;9.05;4.00;;;24.80;99.90;;;;;;5095470;28;20868;-87
2022/03/05 08:51:32;;;;;;;8.68;3.63;;;24.80;99.90;;;;;;5091154;28;20516;-87
2022/03/05 08:53:59;;;;;;;8.15;3.50;;;24.70;99.90;;;;;;5090958;28;21017;-88
2022/03/05 08:56:26;;;;;;;9.65;3.55;;;24.70;99.90;;;;;;5090983;28;20388;-90
2022/03/05 08:58:53;;;;;;;9.68;3.53;;;24.70;99.90;;;;;;5091304;28;20472;-88
2022/03/05 09:01:20;;;;;;;9.90;3.58;;;24.60;99.90;;;;;;5091132;28;20408;-88
2022/03/05 09:03:47;;;;;;;9.50;3.50;;;24.60;99.90;;;;;;5091395;28;20728;-89
2022/03/05 09:06:14;;;;;;;9.47;3.50;;;24.60;99.90;;;;;;5091249;28;20375;-88
2022/03/05 09:08:41;;;;;;;7.50;3.33;;;24.50;99.90;;;;;;5091095;28;20400;-86
2022/03/05 09:11:08;;;;;;;12.23;3.22;;;24.50;99.90;;;;;;5090677;28;20373;-88
2022/03/05 09:13:35;;;;;;;10.07;3.37;;;24.50;99.90;;;;;;5090858;28;20372;-89
2022/03/05 09:16:02;;;;;;;11.93;3.28;;;24.50;99.90;;;;;;5091162;28;20935;-89
2022/03/05 09:18:29;;;;;;;8.85;3.30;;;24.40;99.90;;;;;;5089511;28;20411;-88
2022/03/05 09:20:56;;;;;;;10.75;3.30;;;24.40;99.90;;;;;;5091651;28;20368;-86
2022/03/05 09:23:23;;;;;;;9.65;3.30;;;24.30;99.90;;;;;;5090213;28;20388;-89
2022/03/05 09:25:53;;;;;;;12.00;4.20;;;24.30;99.90;;;;;;5092478;28;20741;-88
2022/03/05 09:28:20;;;;;;;10.27;3.75;;;24.20;99.90;;;;;;5093083;28;20377;-91
2022/03/05 09:30:47;;;;;;;8.95;3.65;;;24.20;99.90;;;;;;5092464;28;20736;-89
2022/03/05 09:33:19;;;;;;;12.07;3.80;;;24.20;99.90;;;;;;5091595;28;20389;-91
2022/03/05 09:35:46;;;;;;;11.10;3.58;;;24.10;99.90;;;;;;5091055;28;20407;-89
2022/03/05 09:38:13;;;;;;;10.17;3.67;;;24.10;99.90;;;;;;5089490;28;20803;-90
2022/03/05 09:40:40;;;;;;;11.45;4.55;;;24.00;99.90;;;;;;5091376;28;20864;-87
2022/03/05 09:43:07;;;;;;;11.45;4.88;;;24.00;99.90;;;;;;5090582;28;20371;-89
2022/03/05 09:45:38;;;;;;;15.55;7.13;;;24.00;99.90;;;;;;5091263;28;20406;-88
2022/03/05 09:48:05;;;;;;;13.15;8.02;;;24.00;99.90;;;;;;5090680;28;20414;-88
2022/03/05 09:50:32;;;;;;;12.38;6.40;;;24.10;99.90;;;;;;5090820;28;20423;-90
2022/03/05 09:53:00;;;;;;;12.30;4.20;;;24.10;99.90;;;;;;5090260;28;20369;-90
2022/03/05 09:55:28;;;;;;;12.25;4.10;;;24.20;99.90;;;;;;5091873;28;20384;-88
2022/03/05 09:57:55;;;;;;;12.65;4.07;;;24.20;99.90;;;;;;5089897;28;20875;-89
2022/03/05 10:00:22;;;;;;;11.60;3.58;;;24.10;99.90;;;;;;5092334;28;20391;-89
2022/03/05 10:02:49;;;;;;;9.98;3.35;;;24.10;99.90;;;;;;5090087;28;20371;-91
2022/03/05 10:05:26;;;;;;;13.02;3.30;;;24.10;99.90;;;;;;5088418;28;20384;-87
2022/03/05 10:08:15;;;;;;;12.13;3.00;;;24.00;99.90;;;;;;5088531;28;20376;-87
2022/03/05 10:10:49;;;;;;;7.00;2.75;;;24.00;99.90;;;;;;5089885;28;20472;-89
2022/03/05 10:13:30;;;;;;;8.57;2.60;;;24.00;99.90;;;;;;5090198;28;20356;-89
2022/03/05 10:16:03;;;;;;;8.90;2.80;;;24.10;99.90;;;;;;5089736;28;20463;-88
2022/03/05 10:18:32;;;;;;;10.77;2.53;;;24.00;99.90;;;;;;5088398;28;20747;-90
2022/03/05 10:21:07;;;;;;;11.88;2.90;;;24.00;99.90;;;;;;5089711;28;20368;-90
2022/03/05 10:23:47;;;;;;;11.23;3.13;;;24.00;99.90;;;;;;5090278;28;20376;-87
2022/03/05 10:26:15;;;;;;;6.85;2.22;;;24.00;99.90;;;;;;5090684;28;20379;-90
2022/03/05 10:28:42;;;;;;;2.63;1.23;;;23.90;99.90;;;;;;5088810;28;20937;-89
2022/03/05 10:31:11;;;;;;;4.05;1.40;;;23.30;99.90;;;;;;5089681;28;20385;-89
2022/03/05 10:33:40;;;;;;;2.50;1.00;;;22.60;99.90;;;;;;5089500;28;20442;-87
2022/03/05 10:36:25;;;;;;;3.83;0.95;;;21.90;99.90;;;;;;5090909;28;20372;-89
2022/03/05 10:39:10;;;;;;;3.55;1.00;;;21.10;99.90;;;;;;5088113;28;20513;-89
2022/03/05 10:41:41;;;;;;;5.80;1.30;;;20.70;99.90;;;;;;5090174;28;20387;-88
2022/03/05 10:44:15;;;;;;;7.28;1.50;;;20.50;99.90;;;;;;5089717;28;20377;-88
2022/03/05 10:46:47;;;;;;;6.40;1.58;;;20.30;99.90;;;;;;5089596;28;20948;-85
2022/03/05 10:49:20;;;;;;;6.43;1.70;;;20.20;99.90;;;;;;5089173;28;20478;-85
2022/03/05 10:51:52;;;;;;;12.90;2.63;;;20.10;99.90;;;;;;5087574;28;20376;-86
2022/03/05 10:54:31;;;;;;;12.65;2.70;;;20.00;99.90;;;;;;5089328;28;20522;-87
2022/03/05 10:57:22;;;;;;;14.65;2.90;;;20.00;99.90;;;;;;5088097;28;20373;-87
2022/03/05 10:59:52;;;;;;;17.05;3.60;;;19.90;99.90;;;;;;5027157;28;20404;-86
2022/03/05 11:02:21;;;;;;;25.23;3.30;;;19.80;99.90;;;;;;5027348;28;20449;-85
2022/03/05 11:04:49;;;;;;;9.43;2.53;;;19.80;99.90;;;;;;5027656;28;20777;-90
2022/03/05 11:07:17;;;;;;;11.32;2.30;;;19.70;99.90;;;;;;5027360;28;20411;-85
2022/03/05 11:09:47;;;;;;;9.00;2.38;;;19.70;99.90;;;;;;5026662;28;20405;-85
2022/03/05 11:12:19;;;;;;;13.07;2.40;;;19.60;99.90;;;;;;5027129;28;20837;-88
2022/03/05 11:14:51;;;;;;;9.30;2.20;;;19.60;99.90;;;;;;5027728;28;20381;-87
2022/03/05 11:17:19;;;;;;;5.28;2.10;;;19.60;99.90;;;;;;5027550;28;20382;-82
2022/03/05 11:19:46;;;;;;;6.78;2.10;;;19.60;99.90;;;;;;5027730;28;20762;-87
2022/03/05 11:22:16;;;;;;;3.78;1.67;;;19.60;99.90;;;;;;5027048;28;20873;-91
2022/03/05 11:24:45;;;;;;;6.13;1.80;;;19.60;99.90;;;;;;5027137;28;20854;-85
2022/03/05 11:27:16;;;;;;;5.00;1.67;;;19.50;99.90;;;;;;5026865;28;20408;-87
2022/03/05 11:29:59;;;;;;;4.78;1.70;;;19.50;99.90;;;;;;5026320;28;20832;-86
2022/03/05 11:32:40;;;;;;;7.43;2.42;;;19.50;99.90;;;;;;5026106;28;20465;-85
2022/03/05 11:35:29;;;;;;;12.10;2.60;;;19.60;99.90;;;;;;5026913;28;20838;-86
2022/03/05 11:37:56;;;;;;;8.18;2.20;;;19.60;99.90;;;;;;5086731;28;20368;-85
2022/03/05 11:40:39;;;;;;;10.73;3.03;;;19.50;99.90;;;;;;5088420;28;20856;-85
2022/03/05 11:43:23;;;;;;;5.72;2.30;;;19.60;99.90;;;;;;5088096;28;20372;-84
2022/03/05 11:46:02;;;;;;;4.45;2.00;;;19.60;99.90;;;;;;5088130;28;20866;-84
2022/03/05 11:48:36;;;;;;;8.43;2.38;;;19.60;99.90;;;;;;5088332;28;20380;-85
2022/03/05 11:51:17;;;;;;;11.90;2.60;;;19.50;99.90;;;;;;5090473;28;20364;-86
2022/03/05 11:53:43;;;;;;;11.30;2.70;;;19.50;99.90;;;;;;5092402;28;20368;-84
2022/03/05 11:56:26;;;;;;;13.40;2.40;;;19.60;99.90;;;;;;5092342;28;20888;-84
2022/03/05 11:58:53;;;;;;;10.07;2.50;;;19.50;99.90;;;;;;5092260;28;20376;-84
2022/03/05 12:01:43;;;;;;;7.07;2.40;;;19.50;99.90;;;;;;5092529;28;20396;-84
2022/03/05 12:04:19;;;;;;;6.15;3.50;;;19.50;99.90;;;;;;5092480;28;20369;-85
2022/03/05 12:06:50;;;;;;;7.03;3.50;;;19.50;99.90;;;;;;5092269;28;20434;-86
2022/03/05 12:10:02;;;;;;;7.15;3.38;;;19.50;99.90;;;;;;5092697;28;20852;-85
2022/03/05 12:12:55;;;;;;;4.63;2.40;;;19.40;99.90;;;;;;5091442;28;20391;-86
2022/03/05 12:15:33;;;;;;;5.00;1.70;;;19.50;99.90;;;;;;5091323;28;20773;-85
2022/03/05 12:18:00;;;;;;;2.95;1.60;;;19.40;99.90;;;;;;5093036;28;20852;-85
2022/03/05 12:20:32;;;;;;;5.50;1.80;;;19.40;99.90;;;;;;5093160;28;20364;-87
2022/03/05 12:23:05;;;;;;;3.38;1.70;;;19.40;99.90;;;;;;5094396;28;20364;-86
2022/03/05 12:25:34;;;;;;;4.03;1.70;;;19.40;99.90;;;;;;5094235;28;20915;-84
2022/03/05 12:28:04;;;;;;;4.30;2.00;;;19.40;99.90;;;;;;5092082;28;20709;-84
2022/03/05 12:30:34;;;;;;;5.60;1.92;;;19.30;99.90;;;;;;5093858;28;20447;-86
2022/03/05 12:33:04;;;;;;;6.30;3.30;;;19.30;99.90;;;;;;5091826;28;20402;-87
2022/03/05 12:35:32;;;;;;;3.40;2.40;;;19.40;99.90;;;;;;5092592;28;20494;-85
2022/03/05 12:37:59;;;;;;;4.53;2.10;;;19.40;99.90;;;;;;5092883;28;20440;-88
2022/03/05 12:40:28;;;;;;;4.32;1.90;;;19.40;99.90;;;;;;5094653;28;20379;-86
2022/03/05 12:42:57;;;;;;;4.68;2.00;;;19.40;99.90;;;;;;5092945;28;20380;-87
2022/03/05 12:45:33;;;;;;;3.30;1.80;;;19.40;99.90;;;;;;5092635;28;20797;-85
2022/03/05 12:48:12;;;;;;;4.00;2.20;;;19.40;99.90;;;;;;5091872;28;20374;-86
2022/03/05 12:50:42;;;;;;;4.57;1.83;;;19.40;99.90;;;;;;5092863;28;20446;-85
2022/03/05 12:53:10;;;;;;;3.35;1.80;;;19.40;99.90;;;;;;5094843;28;20369;-86
2022/03/05 12:55:46;;;;;;;3.83;2.00;;;19.40;99.90;;;;;;5095241;28;20853;-85